Airfield :
LOGIN :

Register | Disclaimer

   EN    FR    IT 

 










Legend :    VFR   Marginal VFR   IFR   Intensive IFR   Very Intensive IFR
Visi :
Ceiling :
>= 8 km
>= 3000ft
5 to 8 km
1000 to 3000 ft
1500m to 5 km
500 to 1000 ft
800 to 1500m
200 to 500 ft
< 800m
< 200 ft
Symbols :   Thunderstorms  Fog  Heavy snow  Heavy precipitations  Wind > 20 kt
SIGMETs :     Misc.  Thunderstorms  Icing  Turbulence  Mountain Waves  Volcanic Ashes






- Airport Elevation : 19 ft
- IATA code : LCY


EGLC - London City

CURRENT METAR :
  • 171820Z AUTO 16005G16KT 080V200 9999 NCD 19/14 Q1013

EXPIRED METARs :
  • 171750Z AUTO 17005KT 140V200 9999 NCD 20/13 Q1013
  • 171720Z AUTO 15006KT 110V190 9999 NCD 20/13 Q1013
  • 171650Z AUTO 18006G18KT 130V230 9999 BKN038 21/13 Q1013
  • 171620Z AUTO VRB05KT 9999 NCD 21/13 Q1013
  • 171550Z AUTO 18004KT 120V240 9999 SCT038 OVC048 21/12 Q1013

TAF TAF EGLC
Valid from the 17 at 18:00 until the 17 at 21:00 UTC


171659Z 1718/1721 16006KT 9999 FEW030
ATIS : +44 20 7646 0224



MET'MAP, your aeronautical weather chart ! - Copyright ORBIFLY December 2007 - Disclaimer

ORBIFLY MET'MAP TEAM :

Programming & Development : Alexandra Zaïnal
Concept & original design : Baudouin d'Aumeries
Assistance for programming : Marc-Olivier Méhu
Technical & hardware support : Manuel Goepfert

Contact : metmap@orbifly.com




SOURCES & CREDITS :

   NOAA